createdAt,value
2023-02-09T00:00:30.155Z,76.00
2023-02-09T00:03:23.721Z,70.20
2023-02-09T00:05:57.534Z,70.10
2023-02-09T00:08:32.622Z,72.20
2023-02-09T00:11:09.589Z,68.20
2023-02-09T00:13:44.801Z,75.90
2023-02-09T00:16:18.557Z,72.20
2023-02-09T00:18:52.166Z,75.70
2023-02-09T00:21:26.057Z,77.50
2023-02-09T00:24:00.327Z,77.20
2023-02-09T00:26:34.652Z,70.20
2023-02-09T00:29:22.825Z,68.30
2023-02-09T00:31:57.448Z,65.60
2023-02-09T00:34:31.277Z,70.20
2023-02-09T00:37:05.527Z,69.70
2023-02-09T00:39:39.963Z,70.20
2023-02-09T00:42:13.707Z,76.20
2023-02-09T00:44:48.755Z,67.10
2023-02-09T00:47:22.246Z,70.40
2023-02-09T00:49:55.798Z,73.60
2023-02-09T00:52:29.576Z,71.00
2023-02-09T00:55:03.223Z,72.80
2023-02-09T00:57:36.993Z,69.10
2023-02-09T01:00:16.561Z,68.00
2023-02-09T01:02:50.371Z,69.70
2023-02-09T01:05:24.120Z,67.50
2023-02-09T01:07:59.187Z,67.40
2023-02-09T01:10:32.818Z,71.40
2023-02-09T01:13:06.801Z,71.40
2023-02-09T01:15:42.498Z,67.20
2023-02-09T01:18:16.289Z,66.00
2023-02-09T01:20:50.082Z,62.10
2023-02-09T01:23:23.777Z,69.40
2023-02-09T01:26:08.009Z,66.30
2023-02-09T01:28:42.359Z,62.80
2023-02-09T01:31:25.875Z,59.90
2023-02-09T01:34:02.785Z,61.30
2023-02-09T01:36:36.929Z,61.90
2023-02-09T01:39:11.931Z,69.10
2023-02-09T01:41:46.577Z,67.50
2023-02-09T01:44:54.964Z,64.40
2023-02-09T01:47:29.722Z,64.00
2023-02-09T01:50:05.305Z,58.40
2023-02-09T01:52:39.585Z,59.90
2023-02-09T01:55:16.931Z,60.60
2023-02-09T01:57:56.105Z,66.90
2023-02-09T02:00:29.761Z,62.70
2023-02-09T02:03:07.745Z,64.30
2023-02-09T02:05:45.864Z,59.40
2023-02-09T02:08:26.060Z,62.40
2023-02-09T02:11:00.281Z,64.70
2023-02-09T02:13:33.854Z,59.20
2023-02-09T02:16:17.705Z,64.00
2023-02-09T02:19:10.567Z,65.60
2023-02-09T02:22:16.458Z,65.60
2023-02-09T02:25:14.933Z,65.20
2023-02-09T02:27:55.630Z,55.40
2023-02-09T02:30:46.007Z,66.10
2023-02-09T02:33:35.378Z,57.20
2023-02-09T02:36:18.625Z,59.80
2023-02-09T02:39:02.859Z,58.30
2023-02-09T02:41:59.925Z,61.40
2023-02-09T02:44:37.579Z,61.40
2023-02-09T02:47:15.654Z,61.80
2023-02-09T02:49:56.129Z,56.50
2023-02-09T02:52:30.367Z,58.90
2023-02-09T02:55:08.085Z,65.80
2023-02-09T02:57:46.660Z,63.10
2023-02-09T03:00:25.388Z,59.50
2023-02-09T03:03:02.203Z,60.60
2023-02-09T03:05:36.909Z,63.10
2023-02-09T03:08:10.833Z,60.90
2023-02-09T03:10:45.874Z,59.60
2023-02-09T03:13:39.502Z,61.10
2023-02-09T03:16:29.508Z,58.90
2023-02-09T03:19:16.378Z,62.00
2023-02-09T03:21:56.883Z,62.00
2023-02-09T03:24:43.857Z,56.00
2023-02-09T03:27:21.234Z,63.00
2023-02-09T03:30:01.224Z,53.10
2023-02-09T03:32:38.638Z,52.90
2023-02-09T03:35:16.545Z,56.30
2023-02-09T03:37:52.737Z,60.70
2023-02-09T03:40:26.574Z,59.00
2023-02-09T03:43:03.054Z,59.00
2023-02-09T03:45:36.644Z,57.00
2023-02-09T03:48:10.408Z,58.90
2023-02-09T03:50:44.949Z,51.10
2023-02-09T03:53:19.150Z,57.80
2023-02-09T03:55:52.771Z,50.60
2023-02-09T03:58:26.492Z,56.00
2023-02-09T04:01:06.493Z,54.80
2023-02-09T04:03:41.504Z,51.70
2023-02-09T04:06:25.601Z,56.20
2023-02-09T04:08:59.680Z,52.70
2023-02-09T04:11:33.346Z,50.30
2023-02-09T04:14:09.466Z,53.70
2023-02-09T04:16:53.645Z,52.90
2023-02-09T04:19:27.657Z,54.40
2023-02-09T04:22:01.829Z,51.50
2023-02-09T04:24:51.130Z,58.70
2023-02-09T04:27:24.997Z,52.60
2023-02-09T04:29:58.852Z,45.90
2023-02-09T04:32:32.780Z,57.20
2023-02-09T04:35:07.134Z,51.90
2023-02-09T04:37:41.358Z,54.60
2023-02-09T04:40:16.037Z,60.90
2023-02-09T04:42:50.310Z,55.20
2023-02-09T04:45:24.359Z,60.30
2023-02-09T04:47:57.885Z,53.40
2023-02-09T04:50:31.558Z,56.30
2023-02-09T04:53:05.474Z,57.30
2023-02-09T04:55:40.496Z,49.30
2023-02-09T04:58:34.144Z,55.00
2023-02-09T05:01:09.634Z,56.10
2023-02-09T05:03:44.259Z,50.40
2023-02-09T05:06:18.039Z,53.20
2023-02-09T05:08:51.616Z,54.00
2023-02-09T05:11:25.807Z,51.40
2023-02-09T05:14:00.139Z,55.70
2023-02-09T05:16:33.989Z,54.60
2023-02-09T05:19:07.654Z,51.50
2023-02-09T05:21:41.235Z,55.00
2023-02-09T05:24:15.374Z,58.80
2023-02-09T05:26:49.117Z,57.20
2023-02-09T05:29:23.067Z,57.10
2023-02-09T05:31:56.936Z,56.00
2023-02-09T05:34:30.665Z,54.50
2023-02-09T05:37:04.220Z,57.50
2023-02-09T05:39:38.039Z,52.30
2023-02-09T05:42:17.121Z,59.80
2023-02-09T05:44:52.406Z,50.40
2023-02-09T05:47:27.262Z,54.70
2023-02-09T05:50:01.196Z,59.40
2023-02-09T05:52:34.722Z,53.40
2023-02-09T05:55:09.335Z,58.30
2023-02-09T05:57:43.841Z,52.60
2023-02-09T06:00:19.046Z,51.80
2023-02-09T06:02:53.284Z,54.50
2023-02-09T06:05:27.133Z,59.30
2023-02-09T06:08:01.052Z,51.70
2023-02-09T06:10:34.864Z,55.20
2023-02-09T06:13:08.840Z,60.10
2023-02-09T06:15:42.672Z,56.30
2023-02-09T06:18:16.359Z,55.50
2023-02-09T06:20:50.094Z,59.80
2023-02-09T06:23:24.111Z,56.10
2023-02-09T06:26:01.018Z,57.30
2023-02-09T06:28:34.666Z,53.50
2023-02-09T06:31:09.221Z,51.20
2023-02-09T06:33:43.791Z,55.60
2023-02-09T06:36:17.545Z,58.60
2023-02-09T06:38:51.579Z,53.90
2023-02-09T06:41:25.740Z,61.30
2023-02-09T06:43:59.417Z,54.80
2023-02-09T06:46:33.486Z,59.10
2023-02-09T06:49:07.644Z,62.40
2023-02-09T06:51:41.570Z,58.20
2023-02-09T06:54:15.728Z,58.80
2023-02-09T06:56:49.474Z,60.80
2023-02-09T06:59:23.272Z,57.70
2023-02-09T07:01:56.957Z,59.40
2023-02-09T07:04:30.947Z,58.90
2023-02-09T07:07:04.312Z,62.60
2023-02-09T07:09:38.100Z,56.50
2023-02-09T07:12:12.319Z,56.10
2023-02-09T07:14:46.149Z,60.10
2023-02-09T07:17:19.890Z,55.30
2023-02-09T07:19:53.798Z,56.50
2023-02-09T07:22:27.593Z,62.40
2023-02-09T07:25:01.369Z,64.30
2023-02-09T07:27:35.288Z,63.80
2023-02-09T07:30:10.971Z,58.00
2023-02-09T07:32:44.873Z,58.20
2023-02-09T07:35:18.777Z,56.80
2023-02-09T07:37:52.794Z,58.60
2023-02-09T07:40:30.045Z,56.90
2023-02-09T07:43:03.681Z,66.70
2023-02-09T07:45:37.506Z,60.40
2023-02-09T07:48:21.200Z,60.80
2023-02-09T07:50:55.104Z,66.20
2023-02-09T07:53:29.303Z,61.80
2023-02-09T07:56:03.323Z,60.20
2023-02-09T07:58:37.362Z,60.50
2023-02-09T08:01:13.776Z,63.70
2023-02-09T08:03:49.660Z,57.90
2023-02-09T08:06:41.038Z,57.20
2023-02-09T08:09:18.204Z,56.60
2023-02-09T08:11:55.924Z,60.60
2023-02-09T08:14:32.741Z,59.20
2023-02-09T08:17:26.294Z,57.90
2023-02-09T08:20:05.701Z,52.60
2023-02-09T08:22:43.945Z,58.30
2023-02-09T08:25:19.425Z,57.50
2023-02-09T08:27:54.732Z,57.50
2023-02-09T08:30:29.043Z,58.30
2023-02-09T08:33:03.226Z,56.70
2023-02-09T08:35:36.938Z,58.40
2023-02-09T08:38:10.579Z,57.60
2023-02-09T08:40:44.644Z,55.60
2023-02-09T08:43:18.461Z,56.90
2023-02-09T08:45:52.802Z,56.70
2023-02-09T08:48:31.296Z,53.10
2023-02-09T08:51:05.642Z,59.30
2023-02-09T08:53:39.874Z,56.30
2023-02-09T08:56:13.494Z,55.50
2023-02-09T08:58:47.388Z,66.70
2023-02-09T09:01:32.629Z,55.50
2023-02-09T09:04:06.583Z,61.70
2023-02-09T09:06:40.618Z,59.30
2023-02-09T09:09:14.517Z,63.10
2023-02-09T09:11:57.560Z,59.40
2023-02-09T09:14:32.217Z,56.20
2023-02-09T09:17:05.940Z,57.70
2023-02-09T09:19:39.852Z,63.40
2023-02-09T09:22:13.936Z,62.00
2023-02-09T09:24:47.826Z,61.00
2023-02-09T09:27:21.954Z,59.30
2023-02-09T09:29:55.799Z,57.70
2023-02-09T09:32:32.275Z,57.50
2023-02-09T09:35:14.220Z,63.00
2023-02-09T09:38:08.568Z,59.80
2023-02-09T09:40:53.862Z,57.10
2023-02-09T09:43:36.783Z,57.80
2023-02-09T09:46:18.859Z,55.90
2023-02-09T09:48:56.594Z,59.40
2023-02-09T09:51:38.844Z,60.90
2023-02-09T09:54:19.215Z,55.50
2023-02-09T09:57:03.592Z,59.30
2023-02-09T09:59:39.647Z,58.50
2023-02-09T10:02:25.406Z,57.90
2023-02-09T10:05:04.016Z,51.00
2023-02-09T10:10:19.798Z,57.60
2023-02-09T10:12:57.675Z,58.90
2023-02-09T10:15:35.251Z,53.00
2023-02-09T10:18:16.064Z,54.70
2023-02-09T10:20:55.093Z,49.00
2023-02-09T10:23:41.565Z,49.40
2023-02-09T10:26:27.018Z,55.60
2023-02-09T10:29:09.257Z,59.40
2023-02-09T10:31:46.586Z,49.10
2023-02-09T10:34:23.299Z,44.20
2023-02-09T10:37:09.098Z,47.70
2023-02-09T10:39:43.328Z,45.50
2023-02-09T10:42:22.285Z,49.80
2023-02-09T10:44:58.479Z,49.40
2023-02-09T10:47:33.356Z,45.70
2023-02-09T10:50:20.214Z,45.10
2023-02-09T10:53:03.476Z,44.80
2023-02-09T10:55:41.879Z,42.60
2023-02-09T10:58:26.778Z,72.80
2023-02-09T11:01:08.319Z,39.10
2023-02-09T11:04:05.946Z,36.00
2023-02-09T11:06:57.015Z,36.30
2023-02-09T11:09:33.414Z,33.20
2023-02-09T11:12:14.402Z,33.00
2023-02-09T11:14:48.469Z,34.90
2023-02-09T11:17:26.289Z,36.40
2023-02-09T11:20:31.167Z,33.10
2023-02-09T11:23:39.573Z,30.50
2023-02-09T11:26:22.275Z,30.80
2023-02-09T11:29:13.844Z,27.40
2023-02-09T11:32:05.138Z,28.20
2023-02-09T11:35:39.062Z,28.60
2023-02-09T11:38:53.596Z,30.20
2023-02-09T11:41:52.177Z,28.10
2023-02-09T11:44:34.122Z,27.90
2023-02-09T11:47:16.420Z,28.40
2023-02-09T11:49:54.167Z,53.10
2023-02-09T11:52:38.117Z,31.10
2023-02-09T11:55:28.004Z,31.90
2023-02-09T11:58:17.776Z,28.30
2023-02-09T12:01:20.801Z,26.30
2023-02-09T12:04:05.325Z,29.40
2023-02-09T12:06:42.827Z,27.00
2023-02-09T12:12:15.629Z,31.10
2023-02-09T12:15:07.437Z,30.20
2023-02-09T12:17:56.712Z,31.80
2023-02-09T12:23:17.691Z,31.40
2023-02-09T12:26:00.280Z,30.40
2023-02-09T12:28:45.914Z,30.20
2023-02-09T12:31:30.072Z,30.90
2023-02-09T12:34:29.663Z,31.50
2023-02-09T12:37:29.250Z,28.30
2023-02-09T12:40:26.103Z,29.00
2023-02-09T12:43:37.469Z,27.50
2023-02-09T12:46:21.454Z,27.00
2023-02-09T12:49:21.006Z,27.70
2023-02-09T12:52:14.022Z,25.90
2023-02-09T12:54:50.752Z,30.40
2023-02-09T12:57:56.057Z,29.60
2023-02-09T13:00:57.650Z,26.20
2023-02-09T13:03:33.172Z,29.80
2023-02-09T13:06:24.096Z,28.80
2023-02-09T13:09:00.345Z,28.50
2023-02-09T13:11:45.308Z,27.30
2023-02-09T13:14:20.531Z,25.70
2023-02-09T13:17:24.954Z,28.40
2023-02-09T13:20:34.796Z,25.50
2023-02-09T13:23:34.564Z,25.90
2023-02-09T13:26:20.557Z,22.00
2023-02-09T13:29:19.749Z,26.40
2023-02-09T13:32:06.006Z,26.10
2023-02-09T13:34:46.774Z,26.40
2023-02-09T13:37:36.968Z,26.50
2023-02-09T13:40:19.912Z,24.30
2023-02-09T13:43:21.897Z,23.40
2023-02-09T13:45:59.604Z,28.00
2023-02-09T13:48:36.570Z,22.70
2023-02-09T13:51:20.353Z,22.70
2023-02-09T13:54:04.672Z,22.80
2023-02-09T13:56:59.025Z,23.90
2023-02-09T13:59:42.309Z,22.60
2023-02-09T14:02:29.514Z,22.00
2023-02-09T14:05:06.972Z,23.20
2023-02-09T14:07:41.531Z,22.00
2023-02-09T14:10:18.452Z,25.00
2023-02-09T14:13:00.412Z,23.00
2023-02-09T14:16:00.173Z,25.00
2023-02-09T14:18:48.266Z,24.00
2023-02-09T14:21:27.322Z,24.50
2023-02-09T14:24:19.197Z,23.30
2023-02-09T14:27:04.346Z,26.10
2023-02-09T14:29:39.453Z,27.30
2023-02-09T14:32:33.633Z,24.20
2023-02-09T14:35:22.262Z,23.40
2023-02-09T14:37:58.293Z,25.20
2023-02-09T14:40:37.494Z,25.10
2023-02-09T14:43:25.710Z,27.30
2023-02-09T14:46:03.647Z,23.20
2023-02-09T14:48:37.548Z,27.90
2023-02-09T14:51:17.670Z,26.50
2023-02-09T14:53:52.226Z,27.60
2023-02-09T14:56:32.005Z,27.20
2023-02-09T14:59:07.626Z,26.20
2023-02-09T15:01:41.906Z,28.20
2023-02-09T15:04:16.039Z,24.90
2023-02-09T15:06:55.134Z,27.10
2023-02-09T15:09:33.498Z,30.90
2023-02-09T15:12:09.050Z,25.20
2023-02-09T15:14:45.968Z,27.30
2023-02-09T15:17:23.828Z,25.90
2023-02-09T15:19:59.208Z,26.00
2023-02-09T15:22:33.914Z,28.50
2023-02-09T15:25:08.668Z,30.90
2023-02-09T15:27:51.190Z,26.90
2023-02-09T15:30:27.964Z,28.00
2023-02-09T15:33:02.136Z,29.70
2023-02-09T15:35:36.237Z,27.10
2023-02-09T15:38:15.043Z,27.00
2023-02-09T15:41:09.039Z,24.50
2023-02-09T15:44:00.962Z,32.20
2023-02-09T15:46:56.075Z,28.60
2023-02-09T15:49:31.843Z,31.50
2023-02-09T15:52:05.951Z,33.90
2023-02-09T15:54:54.286Z,28.10
2023-02-09T15:57:29.836Z,31.70
2023-02-09T16:00:04.698Z,30.60
2023-02-09T16:02:40.608Z,28.10
2023-02-09T16:05:17.444Z,30.30
2023-02-09T16:07:53.409Z,30.90
2023-02-09T16:10:30.756Z,32.20
2023-02-09T16:13:09.020Z,33.40
2023-02-09T16:18:47.682Z,35.10
2023-02-09T16:21:28.090Z,39.30
2023-02-09T16:24:05.635Z,36.20
2023-02-09T16:26:41.639Z,39.40
2023-02-09T16:29:18.850Z,38.00
2023-02-09T16:32:05.243Z,36.90
2023-02-09T16:34:39.648Z,39.10
2023-02-09T16:37:16.057Z,41.70
2023-02-09T16:39:51.436Z,40.30
2023-02-09T16:42:26.916Z,42.20
2023-02-09T16:45:02.795Z,40.90
2023-02-09T16:47:39.667Z,43.50
2023-02-09T16:50:25.243Z,37.90
2023-02-09T16:53:05.996Z,40.50
2023-02-09T16:55:43.601Z,42.20
2023-02-09T16:58:21.592Z,39.40
2023-02-09T17:00:57.669Z,38.20
2023-02-09T17:03:37.697Z,41.90
2023-02-09T17:06:18.883Z,40.80
2023-02-09T17:08:57.597Z,36.20
2023-02-09T17:11:34.304Z,38.80
2023-02-09T17:14:09.158Z,39.80
2023-02-09T17:16:51.054Z,41.20
2023-02-09T17:19:29.392Z,40.70
2023-02-09T17:22:15.192Z,42.40
2023-02-09T17:24:55.983Z,40.40
2023-02-09T17:27:34.176Z,49.80
2023-02-09T17:30:17.705Z,36.00
2023-02-09T17:33:01.399Z,45.50
2023-02-09T17:38:41.778Z,40.10
2023-02-09T17:41:22.146Z,40.40
2023-02-09T17:44:17.529Z,43.40
2023-02-09T17:46:57.235Z,42.40
2023-02-09T17:49:34.694Z,42.10
2023-02-09T17:52:13.973Z,40.40
2023-02-09T17:54:52.794Z,42.40
2023-02-09T17:57:32.838Z,42.50
2023-02-09T18:00:11.916Z,42.50
2023-02-09T18:02:47.119Z,40.20
2023-02-09T18:05:27.524Z,42.10
2023-02-09T18:08:04.924Z,36.20
2023-02-09T18:10:46.033Z,40.00
2023-02-09T18:13:37.236Z,40.00
2023-02-09T18:16:17.288Z,44.60
2023-02-09T18:18:53.929Z,41.20
2023-02-09T18:21:33.182Z,41.70
2023-02-09T18:24:10.807Z,35.70
2023-02-09T18:26:47.681Z,42.20
2023-02-09T18:29:27.098Z,41.40
2023-02-09T18:32:15.752Z,44.20
2023-02-09T18:34:58.807Z,43.20
2023-02-09T18:37:37.721Z,43.20
2023-02-09T18:40:18.760Z,39.40
2023-02-09T18:43:18.036Z,39.50
2023-02-09T18:45:55.648Z,45.20
2023-02-09T18:48:39.543Z,48.60
2023-02-09T18:51:18.794Z,47.00
2023-02-09T18:54:06.097Z,50.20
2023-02-09T18:56:46.152Z,45.50
2023-02-09T18:59:31.315Z,42.50
2023-02-09T19:02:17.915Z,41.00
2023-02-09T19:04:59.003Z,41.50
2023-02-09T19:07:46.265Z,38.90
2023-02-09T19:10:34.073Z,34.70
2023-02-09T19:13:11.868Z,32.10
2023-02-09T19:15:51.821Z,36.70
2023-02-09T19:18:30.193Z,34.90
2023-02-09T19:21:13.092Z,37.00
2023-02-09T19:23:58.969Z,37.50
2023-02-09T19:26:35.761Z,38.80
2023-02-09T19:29:12.139Z,39.30
2023-02-09T19:31:50.066Z,37.80
2023-02-09T19:34:36.244Z,37.10
2023-02-09T19:37:13.782Z,38.00
2023-02-09T19:40:05.991Z,38.80
2023-02-09T19:42:54.631Z,34.40
2023-02-09T19:45:37.694Z,37.10
2023-02-09T19:48:14.788Z,39.60
2023-02-09T19:51:01.979Z,40.00
2023-02-09T19:53:41.872Z,37.20
2023-02-09T19:56:24.352Z,37.40
2023-02-09T19:59:11.395Z,33.10
2023-02-09T20:01:51.284Z,37.40
2023-02-09T20:04:32.715Z,37.50
2023-02-09T20:07:10.350Z,38.40
2023-02-09T20:09:51.353Z,35.00
2023-02-09T20:12:28.142Z,39.40
2023-02-09T20:15:05.617Z,40.00
2023-02-09T20:17:57.806Z,33.10
2023-02-09T20:20:38.644Z,33.80
2023-02-09T20:23:27.167Z,45.30
2023-02-09T20:26:11.879Z,44.90
2023-02-09T20:28:51.081Z,51.20
2023-02-09T20:31:40.421Z,33.50
2023-02-09T20:34:22.099Z,35.00
2023-02-09T20:36:59.556Z,35.90
2023-02-09T20:39:51.968Z,38.00
2023-02-09T20:42:50.379Z,36.70
2023-02-09T20:45:44.690Z,36.80
2023-02-09T20:48:21.106Z,30.40
2023-02-09T20:50:56.907Z,34.10
2023-02-09T20:53:35.246Z,28.90
2023-02-09T20:58:46.920Z,38.90
2023-02-09T21:01:24.500Z,35.10
2023-02-09T21:04:01.262Z,36.90
2023-02-09T21:06:39.538Z,36.70
2023-02-09T21:09:26.988Z,32.60
2023-02-09T21:12:02.409Z,40.20
2023-02-09T21:14:46.302Z,34.00
2023-02-09T21:17:25.803Z,34.20
2023-02-09T21:20:06.613Z,34.70
2023-02-09T21:22:41.327Z,34.70
2023-02-09T21:25:17.347Z,32.50
2023-02-09T21:27:56.632Z,30.80
2023-02-09T21:30:33.649Z,35.30
2023-02-09T21:33:12.222Z,35.80
2023-02-09T21:35:47.588Z,33.00
2023-02-09T21:38:22.553Z,34.90
2023-02-09T21:40:57.789Z,36.50
2023-02-09T21:43:37.144Z,37.30
2023-02-09T21:46:18.336Z,39.60
2023-02-09T21:48:52.811Z,33.60
2023-02-09T21:51:26.840Z,35.30
2023-02-09T21:54:01.131Z,38.20
2023-02-09T21:56:34.856Z,38.20
2023-02-09T21:59:08.250Z,37.10
2023-02-09T22:01:42.869Z,41.90
2023-02-09T22:04:17.182Z,35.10
2023-02-09T22:06:51.351Z,41.60
2023-02-09T22:09:29.235Z,33.10
2023-02-09T22:12:13.231Z,38.70
2023-02-09T22:14:46.887Z,37.40
2023-02-09T22:17:20.867Z,37.90
2023-02-09T22:19:54.950Z,33.20
2023-02-09T22:22:28.840Z,35.60
2023-02-09T22:25:02.774Z,39.70
2023-02-09T22:27:36.666Z,33.90
2023-02-09T22:30:29.636Z,35.00
2023-02-09T22:33:03.587Z,34.00
2023-02-09T22:35:41.377Z,35.30
2023-02-09T22:38:14.980Z,33.50
2023-02-09T22:40:48.601Z,36.40
2023-02-09T22:43:22.194Z,38.20
2023-02-09T22:46:00.304Z,37.10
2023-02-09T22:48:33.888Z,34.80
2023-02-09T22:51:07.959Z,36.20
2023-02-09T22:53:41.784Z,35.90
2023-02-09T22:56:25.567Z,37.10
2023-02-09T22:59:03.821Z,33.90
2023-02-09T23:01:47.615Z,34.60
2023-02-09T23:04:21.990Z,36.60
2023-02-09T23:06:56.172Z,32.20
2023-02-09T23:09:50.214Z,33.00
2023-02-09T23:12:24.152Z,37.90
2023-02-09T23:14:57.825Z,42.60
2023-02-09T23:17:52.233Z,39.20
2023-02-09T23:20:31.322Z,33.10
2023-02-09T23:23:06.930Z,33.30
2023-02-09T23:26:01.700Z,34.70
2023-02-09T23:28:35.542Z,29.10
2023-02-09T23:31:12.393Z,33.50
2023-02-09T23:33:46.937Z,34.00
2023-02-09T23:36:26.109Z,28.50
2023-02-09T23:39:02.212Z,31.40
2023-02-09T23:41:39.610Z,30.10
2023-02-09T23:44:13.826Z,31.90
2023-02-09T23:46:47.890Z,33.90
2023-02-09T23:49:23.009Z,34.80
2023-02-09T23:51:56.464Z,34.40
2023-02-09T23:54:30.615Z,32.40
2023-02-09T23:57:04.288Z,30.60
2023-02-09T23:59:42.177Z,33.30
